Time;durP1;ratioP1;P1;durP2;ratioP2;P2;SDS_P1;SDS_P2;PMS_P1;PMS_P2;Temp;Humidity;BMP_temperature;BMP_pressure;BME280_temperature;BME280_humidity;BME280_pressure;Samples;Min_cycle;Max_cycle;Signal;HPM_P1;HPM_P2
2022/03/11 00:01:23;;;;;;;13.25;12.05;;;7.40;43.40;;;;;;5075125;28;20247;-57
2022/03/11 00:03:51;;;;;;;14.35;12.98;;;7.30;44.10;;;;;;5075240;28;20205;-57
2022/03/11 00:06:18;;;;;;;15.52;13.90;;;7.30;44.20;;;;;;5075141;28;20228;-57
2022/03/11 00:08:45;;;;;;;14.23;12.85;;;7.20;44.70;;;;;;5074023;28;20287;-57
2022/03/11 00:11:12;;;;;;;16.55;14.00;;;7.10;45.20;;;;;;5074920;28;20207;-57
2022/03/11 00:13:38;;;;;;;14.13;12.60;;;7.10;45.20;;;;;;5074995;28;20311;-57
2022/03/11 00:16:05;;;;;;;14.95;12.68;;;7.10;45.60;;;;;;5074938;28;20708;-57
2022/03/11 00:18:33;;;;;;;14.93;13.43;;;7.00;45.90;;;;;;5076783;28;20650;-57
2022/03/11 00:21:01;;;;;;;14.60;13.00;;;6.90;46.80;;;;;;5074913;28;20209;-57
2022/03/11 00:23:28;;;;;;;14.80;13.38;;;6.90;46.80;;;;;;5073205;28;20254;-57
2022/03/11 00:25:55;;;;;;;15.50;13.93;;;6.90;46.40;;;;;;5074631;28;20240;-57
2022/03/11 00:28:22;;;;;;;16.13;14.45;;;6.90;47.00;;;;;;5074583;28;20247;-57
2022/03/11 00:30:49;;;;;;;17.77;14.40;;;7.00;46.70;;;;;;5074660;28;20288;-57
2022/03/11 00:33:16;;;;;;;15.75;14.15;;;7.00;46.70;;;;;;5074553;28;20224;-56
2022/03/11 00:35:43;;;;;;;16.33;14.65;;;7.00;47.00;;;;;;5074486;28;20244;-57
2022/03/11 00:38:11;;;;;;;19.75;14.73;;;6.90;47.50;;;;;;5072983;28;20237;-57
2022/03/11 00:40:38;;;;;;;14.90;13.40;;;6.80;48.40;;;;;;5074298;28;20212;-56
2022/03/11 00:43:05;;;;;;;16.08;14.48;;;6.80;47.70;;;;;;5074429;28;20307;-57
2022/03/11 00:45:32;;;;;;;15.98;14.30;;;6.80;48.00;;;;;;5074402;28;20335;-56
2022/03/11 00:47:58;;;;;;;18.17;14.50;;;6.70;49.00;;;;;;5074354;28;20287;-57
2022/03/11 00:50:25;;;;;;;23.52;16.00;;;6.70;48.70;;;;;;5074191;28;20232;-56
2022/03/11 00:52:53;;;;;;;19.23;14.85;;;6.70;48.90;;;;;;5072640;28;20703;-57
2022/03/11 00:55:21;;;;;;;20.85;16.02;;;6.70;49.40;;;;;;5074061;28;20245;-57
2022/03/11 00:57:48;;;;;;;16.58;14.38;;;6.70;48.80;;;;;;5074092;28;20284;-57
2022/03/11 01:00:16;;;;;;;17.17;14.73;;;6.60;49.80;;;;;;5074008;28;20239;-57
2022/03/11 01:02:43;;;;;;;26.45;15.55;;;6.50;50.10;;;;;;5073952;28;20274;-57
2022/03/11 01:05:11;;;;;;;16.55;14.75;;;6.50;50.20;;;;;;5073728;28;20323;-56
2022/03/11 01:07:39;;;;;;;20.63;15.27;;;6.50;50.30;;;;;;5071731;28;20742;-57
2022/03/11 01:10:07;;;;;;;20.00;17.00;;;6.50;49.60;;;;;;5073888;28;20209;-57
2022/03/11 01:12:37;;;;;;;20.10;16.83;;;6.60;49.00;;;;;;5073760;28;20212;-57
2022/03/11 01:15:04;;;;;;;19.88;16.15;;;6.60;48.70;;;;;;5073778;28;20258;-57
2022/03/11 01:17:31;;;;;;;19.00;15.75;;;6.60;49.70;;;;;;5073744;28;20312;-57
2022/03/11 01:19:58;;;;;;;17.85;16.05;;;6.60;49.60;;;;;;5073762;28;20295;-57
2022/03/11 01:22:25;;;;;;;19.38;16.00;;;6.60;48.90;;;;;;5072062;28;20233;-57
2022/03/11 01:24:52;;;;;;;19.40;15.73;;;6.60;50.90;;;;;;5073455;28;20335;-57
2022/03/11 01:27:19;;;;;;;17.98;16.05;;;6.50;49.30;;;;;;5073400;28;20296;-57
2022/03/11 01:29:47;;;;;;;19.20;15.98;;;6.50;49.90;;;;;;5073402;28;20284;-57
2022/03/11 01:32:14;;;;;;;20.30;16.50;;;6.40;49.90;;;;;;5073459;28;20791;-57
2022/03/11 01:34:41;;;;;;;20.88;15.60;;;6.40;52.50;;;;;;5073228;28;20252;-57
2022/03/11 01:37:08;;;;;;;18.17;15.20;;;6.20;51.60;;;;;;5072000;28;20250;-57
2022/03/11 01:39:35;;;;;;;26.10;16.70;;;6.20;52.10;;;;;;5073118;28;20283;-57
2022/03/11 01:42:02;;;;;;;17.85;15.98;;;6.20;51.30;;;;;;5073232;28;20740;-57
2022/03/11 01:44:29;;;;;;;21.65;16.90;;;6.10;52.00;;;;;;5073250;28;20201;-57
2022/03/11 01:46:57;;;;;;;18.60;15.90;;;6.00;53.00;;;;;;5073216;28;20390;-57
2022/03/11 01:49:24;;;;;;;20.10;15.82;;;6.10;51.00;;;;;;5073040;28;20623;-57
2022/03/11 01:51:51;;;;;;;24.38;17.45;;;6.20;51.30;;;;;;5071885;28;20211;-57
2022/03/11 01:54:18;;;;;;;19.73;16.15;;;6.20;51.30;;;;;;5072937;28;20211;-57
2022/03/11 01:56:46;;;;;;;21.98;16.33;;;6.20;51.00;;;;;;5073090;28;20310;-57
2022/03/11 01:59:13;;;;;;;19.80;16.38;;;6.20;51.00;;;;;;5072971;28;20311;-56
2022/03/11 02:01:40;;;;;;;23.67;17.00;;;6.10;50.90;;;;;;5072938;28;20284;-56
2022/03/11 02:04:08;;;;;;;22.05;16.80;;;6.10;51.60;;;;;;5072990;28;20300;-56
2022/03/11 02:06:35;;;;;;;23.38;17.50;;;6.10;51.80;;;;;;5071679;28;20303;-56
2022/03/11 02:09:04;;;;;;;24.17;17.45;;;5.90;52.90;;;;;;5072946;28;20200;-57
2022/03/11 02:11:31;;;;;;;20.17;16.60;;;5.80;53.20;;;;;;5072862;28;20291;-56
2022/03/11 02:14:00;;;;;;;23.85;17.80;;;5.70;52.30;;;;;;5072852;28;20207;-56
2022/03/11 02:16:29;;;;;;;18.67;16.73;;;5.70;53.00;;;;;;5072678;28;20335;-56
2022/03/11 02:18:59;;;;;;;23.65;18.30;;;5.70;52.80;;;;;;5073238;28;20307;-57
2022/03/11 02:21:28;;;;;;;21.00;17.20;;;5.60;54.20;;;;;;5071705;28;20774;-56
2022/03/11 02:23:58;;;;;;;20.98;16.52;;;5.60;53.50;;;;;;5072662;28;20299;-56
2022/03/11 02:26:27;;;;;;;26.02;17.88;;;5.50;53.90;;;;;;5072883;28;20215;-56
2022/03/11 02:28:56;;;;;;;19.92;17.77;;;5.40;54.20;;;;;;5072597;28;20287;-57
2022/03/11 02:31:26;;;;;;;22.27;17.38;;;5.30;54.30;;;;;;5072705;28;20326;-56
2022/03/11 02:33:53;;;;;;;26.90;17.17;;;5.30;54.30;;;;;;5072656;28;20284;-57
2022/03/11 02:36:20;;;;;;;21.23;16.83;;;5.30;54.10;;;;;;5072297;28;20228;-56
2022/03/11 02:38:47;;;;;;;19.75;16.05;;;5.30;54.60;;;;;;5071514;28;20204;-57
2022/03/11 02:41:16;;;;;;;22.38;17.02;;;5.20;55.00;;;;;;5072476;28;20295;-56
2022/03/11 02:43:43;;;;;;;21.77;17.63;;;5.20;54.10;;;;;;5072483;28;20631;-56
2022/03/11 02:46:11;;;;;;;25.58;17.88;;;5.30;54.80;;;;;;5072737;28;20200;-56
2022/03/11 02:48:38;;;;;;;22.27;17.83;;;5.20;54.80;;;;;;5072592;28;20215;-57
2022/03/11 02:51:05;;;;;;;25.60;17.85;;;5.20;54.60;;;;;;5072488;28;20659;-57
2022/03/11 02:53:33;;;;;;;25.83;18.70;;;5.20;54.00;;;;;;5071066;28;20211;-57
2022/03/11 02:56:01;;;;;;;22.00;17.02;;;5.30;53.60;;;;;;5072406;28;20315;-57
2022/03/11 02:58:29;;;;;;;26.08;19.58;;;5.30;53.70;;;;;;5072351;28;20616;-57
2022/03/11 03:00:56;;;;;;;25.77;18.88;;;5.20;54.70;;;;;;5072523;28;20617;-56
2022/03/11 03:03:22;;;;;;;24.48;18.23;;;5.20;55.00;;;;;;5072398;28;20766;-56
2022/03/11 03:05:49;;;;;;;23.00;18.80;;;5.10;55.70;;;;;;5072420;28;20211;-57
2022/03/11 03:08:16;;;;;;;26.58;18.90;;;5.00;55.40;;;;;;5070936;28;20215;-57
2022/03/11 03:10:43;;;;;;;26.88;20.13;;;4.90;55.90;;;;;;5072108;28;20288;-57
2022/03/11 03:13:12;;;;;;;25.83;18.65;;;4.90;55.50;;;;;;5072398;28;20204;-57
2022/03/11 03:15:40;;;;;;;25.40;18.75;;;4.90;56.30;;;;;;5072378;28;20228;-56
2022/03/11 03:18:07;;;;;;;24.50;17.75;;;4.90;55.50;;;;;;5072179;28;20312;-56
2022/03/11 03:20:34;;;;;;;28.38;19.05;;;4.90;56.00;;;;;;5072190;28;20209;-56
2022/03/11 03:23:01;;;;;;;25.00;19.05;;;4.80;57.10;;;;;;5070594;28;20323;-56
2022/03/11 03:25:28;;;;;;;20.58;17.60;;;4.60;57.10;;;;;;5072106;28;20212;-57
2022/03/11 03:27:55;;;;;;;24.38;18.88;;;4.60;56.70;;;;;;5072296;28;20651;-56
2022/03/11 03:30:22;;;;;;;27.35;19.35;;;4.60;56.40;;;;;;5074471;28;20212;-57
2022/03/11 03:32:50;;;;;;;24.83;18.10;;;4.60;56.30;;;;;;5075660;28;20204;-56
2022/03/11 03:35:17;;;;;;;24.95;19.00;;;4.60;56.40;;;;;;5075627;28;20735;-57
2022/03/11 03:37:44;;;;;;;26.15;18.80;;;4.60;55.80;;;;;;5074007;28;20613;-56
2022/03/11 03:40:11;;;;;;;22.73;18.75;;;4.60;56.10;;;;;;5075569;28;20674;-56
2022/03/11 03:42:38;;;;;;;26.13;19.20;;;4.50;56.10;;;;;;5075508;28;20644;-56
2022/03/11 03:45:07;;;;;;;31.08;18.98;;;4.50;56.00;;;;;;5075450;28;20554;-57
2022/03/11 03:47:34;;;;;;;29.05;19.45;;;4.50;56.70;;;;;;5075455;28;20664;-56
2022/03/11 03:50:02;;;;;;;25.90;17.65;;;4.40;56.30;;;;;;5075503;28;20584;-57
2022/03/11 03:52:29;;;;;;;30.70;18.70;;;4.40;57.30;;;;;;5074004;28;20196;-57
2022/03/11 03:54:56;;;;;;;26.85;18.50;;;4.30;57.20;;;;;;5075185;28;20307;-57
2022/03/11 03:57:25;;;;;;;28.30;17.65;;;4.20;56.80;;;;;;5075172;28;20324;-56
2022/03/11 03:59:52;;;;;;;27.30;19.40;;;4.20;57.10;;;;;;5075276;28;20262;-56
2022/03/11 04:02:19;;;;;;;23.25;18.70;;;4.20;56.80;;;;;;5075309;28;20244;-57
2022/03/11 04:04:45;;;;;;;26.90;19.92;;;4.20;56.70;;;;;;5075114;28;20204;-56
2022/03/11 04:07:14;;;;;;;27.35;17.77;;;4.20;56.50;;;;;;5073808;28;20204;-57
2022/03/11 04:09:40;;;;;;;25.77;19.42;;;4.20;56.50;;;;;;5074947;28;20205;-57
2022/03/11 04:12:09;;;;;;;24.27;18.90;;;4.20;56.50;;;;;;5075065;28;20216;-56
2022/03/11 04:14:36;;;;;;;29.15;20.08;;;4.20;56.60;;;;;;5075035;28;20250;-57
2022/03/11 04:17:03;;;;;;;26.88;17.23;;;4.10;57.20;;;;;;5074819;28;20281;-56
2022/03/11 04:19:30;;;;;;;26.20;19.27;;;3.90;57.80;;;;;;5075493;28;20286;-56
2022/03/11 04:21:57;;;;;;;23.58;18.30;;;3.80;58.50;;;;;;5073411;28;20237;-56
2022/03/11 04:24:25;;;;;;;26.80;19.40;;;3.70;58.50;;;;;;5074773;28;20254;-56
2022/03/11 04:26:52;;;;;;;26.33;19.13;;;3.70;58.60;;;;;;5074864;28;20236;-56
2022/03/11 04:29:19;;;;;;;25.90;19.10;;;3.70;57.90;;;;;;5074641;28;20209;-56
2022/03/11 04:31:46;;;;;;;21.60;18.45;;;3.70;58.10;;;;;;5074708;28;20208;-56
2022/03/11 04:34:13;;;;;;;22.98;17.42;;;3.60;58.20;;;;;;5074584;28;20567;-57
2022/03/11 04:36:40;;;;;;;26.73;16.80;;;3.70;57.80;;;;;;5073123;28;20786;-56
2022/03/11 04:39:07;;;;;;;25.92;18.02;;;3.60;58.50;;;;;;5074246;28;20247;-56
2022/03/11 04:41:36;;;;;;;24.98;18.30;;;3.50;58.00;;;;;;5074414;28;20240;-56
2022/03/11 04:44:04;;;;;;;23.80;17.30;;;3.40;58.40;;;;;;5074468;28;20279;-56
2022/03/11 04:46:31;;;;;;;24.00;16.42;;;3.40;58.50;;;;;;5074348;28;20213;-56
2022/03/11 04:48:57;;;;;;;24.08;18.05;;;3.30;58.30;;;;;;5074199;28;20208;-56
2022/03/11 04:51:25;;;;;;;22.40;15.68;;;3.20;58.50;;;;;;5073351;28;20342;-56
2022/03/11 04:53:53;;;;;;;21.27;15.57;;;3.20;58.20;;;;;;5074088;28;20656;-56
2022/03/11 04:56:20;;;;;;;23.27;17.92;;;3.30;57.60;;;;;;5074040;28;20239;-56
2022/03/11 04:58:48;;;;;;;21.60;15.77;;;3.30;58.00;;;;;;5074069;28;20541;-56
2022/03/11 05:01:15;;;;;;;23.90;16.90;;;3.30;57.40;;;;;;5073960;28;20201;-56
2022/03/11 05:03:42;;;;;;;23.80;17.67;;;3.40;56.90;;;;;;5074042;28;20232;-56
2022/03/11 05:06:08;;;;;;;24.15;17.65;;;3.40;56.80;;;;;;5073893;28;20662;-56
2022/03/11 05:08:36;;;;;;;20.88;16.00;;;3.30;56.80;;;;;;5072413;28;20200;-57
2022/03/11 05:11:03;;;;;;;24.55;17.73;;;3.30;56.80;;;;;;5073715;28;20560;-56
2022/03/11 05:13:29;;;;;;;20.08;17.13;;;3.20;56.80;;;;;;5073789;28;20208;-56
2022/03/11 05:15:58;;;;;;;22.90;16.20;;;3.30;56.70;;;;;;5073367;28;20769;-56
2022/03/11 05:18:25;;;;;;;20.98;15.52;;;3.30;56.40;;;;;;5073891;28;20196;-56
2022/03/11 05:20:52;;;;;;;21.98;16.77;;;3.30;56.40;;;;;;5073618;28;20207;-56
2022/03/11 05:23:18;;;;;;;20.83;15.20;;;3.20;56.40;;;;;;5072049;28;20228;-57
2022/03/11 05:25:45;;;;;;;22.00;16.10;;;3.20;56.10;;;;;;5073518;28;20722;-56
2022/03/11 05:28:12;;;;;;;18.33;14.50;;;3.20;55.90;;;;;;5073463;28;20211;-56
2022/03/11 05:30:39;;;;;;;21.92;15.30;;;3.20;56.00;;;;;;5073438;28;20239;-56
2022/03/11 05:33:07;;;;;;;18.48;15.93;;;3.00;56.40;;;;;;5073301;28;20289;-56
2022/03/11 05:35:35;;;;;;;17.92;15.15;;;3.00;56.10;;;;;;5073506;28;20205;-57
2022/03/11 05:38:01;;;;;;;22.48;16.25;;;3.00;55.60;;;;;;5071602;28;20237;-57
2022/03/11 05:40:28;;;;;;;17.65;14.73;;;3.10;55.40;;;;;;5073202;28;20561;-56
2022/03/11 05:42:55;;;;;;;21.40;15.45;;;3.10;55.30;;;;;;5073027;28;20299;-56
2022/03/11 05:45:22;;;;;;;17.88;14.20;;;3.10;55.20;;;;;;5073214;28;20481;-56
2022/03/11 05:47:49;;;;;;;20.10;13.05;;;3.00;55.60;;;;;;5073224;28;20659;-59
2022/03/11 05:50:17;;;;;;;17.70;13.82;;;2.90;55.40;;;;;;5073320;28;20287;-56
2022/03/11 05:52:44;;;;;;;22.10;14.95;;;3.00;55.20;;;;;;5071378;28;20205;-56
2022/03/11 05:55:12;;;;;;;18.38;13.13;;;3.00;55.10;;;;;;5072950;28;20330;-58
2022/03/11 05:57:39;;;;;;;17.55;14.77;;;2.90;54.80;;;;;;5072859;28;20319;-58
2022/03/11 06:00:08;;;;;;;15.82;14.10;;;3.00;54.60;;;;;;5073024;28;20574;-56
2022/03/11 06:02:38;;;;;;;19.23;14.07;;;3.00;54.60;;;;;;5071786;28;20197;-58
2022/03/11 06:05:08;;;;;;;17.08;14.43;;;2.90;55.00;;;;;;5072855;28;20211;-58
2022/03/11 06:07:36;;;;;;;18.33;14.45;;;2.80;54.90;;;;;;5071586;28;20204;-58
2022/03/11 06:10:03;;;;;;;15.23;12.32;;;2.80;54.60;;;;;;5072629;28;20207;-58
2022/03/11 06:12:30;;;;;;;17.80;14.70;;;2.80;54.90;;;;;;5072828;28;20201;-58
2022/03/11 06:14:58;;;;;;;16.70;13.88;;;2.80;54.70;;;;;;5072885;28;20228;-57
2022/03/11 06:17:31;;;;;;;19.25;13.95;;;2.80;54.30;;;;;;5072905;28;20714;-58
2022/03/11 06:19:57;;;;;;;16.05;13.30;;;2.90;54.20;;;;;;5072780;28;20196;-57
2022/03/11 06:22:24;;;;;;;15.00;13.40;;;2.80;54.00;;;;;;5071391;28;20577;-58
2022/03/11 06:24:52;;;;;;;15.30;13.68;;;2.80;54.30;;;;;;5072508;28;20236;-58
2022/03/11 06:27:19;;;;;;;14.52;12.27;;;2.70;54.20;;;;;;5072623;28;20304;-58
2022/03/11 06:29:46;;;;;;;19.05;12.10;;;2.70;54.10;;;;;;5072572;28;20644;-58
2022/03/11 06:32:13;;;;;;;17.10;14.00;;;2.70;53.80;;;;;;5072572;28;20655;-58
2022/03/11 06:34:40;;;;;;;14.85;13.48;;;2.70;53.60;;;;;;5072511;28;20205;-58
2022/03/11 06:37:07;;;;;;;20.85;14.20;;;2.80;53.30;;;;;;5071140;28;20236;-58
2022/03/11 06:39:34;;;;;;;19.30;12.65;;;2.90;53.00;;;;;;5072332;28;20207;-58
2022/03/11 06:42:02;;;;;;;14.90;12.73;;;2.90;53.00;;;;;;5072505;28;20251;-58
2022/03/11 06:44:29;;;;;;;16.77;13.38;;;2.90;52.80;;;;;;5072485;28;20217;-58
2022/03/11 06:46:56;;;;;;;12.93;10.73;;;3.00;52.20;;;;;;5072535;28;20634;-56
2022/03/11 06:49:23;;;;;;;14.70;12.30;;;3.00;52.30;;;;;;5072584;28;20296;-58
2022/03/11 06:51:49;;;;;;;12.85;11.52;;;3.00;51.70;;;;;;5070968;28;20620;-56
2022/03/11 06:54:16;;;;;;;15.80;12.85;;;3.10;52.00;;;;;;5072342;28;20204;-56
2022/03/11 06:56:43;;;;;;;14.00;12.60;;;3.20;51.50;;;;;;5072259;28;20791;-56
2022/03/11 06:59:11;;;;;;;13.57;11.82;;;3.20;51.30;;;;;;5072279;28;20219;-56
2022/03/11 07:01:39;;;;;;;14.40;12.77;;;3.20;51.30;;;;;;5072492;28;20715;-56
2022/03/11 07:04:06;;;;;;;13.50;12.07;;;3.30;50.90;;;;;;5072754;28;20208;-57
2022/03/11 07:06:33;;;;;;;16.17;11.70;;;3.20;51.00;;;;;;5074876;28;20216;-56
2022/03/11 07:08:59;;;;;;;13.70;12.40;;;3.30;51.00;;;;;;5075946;28;20558;-57
2022/03/11 07:11:26;;;;;;;14.52;12.48;;;3.40;50.50;;;;;;5076059;28;20228;-57
2022/03/11 07:13:53;;;;;;;14.75;12.10;;;3.40;50.50;;;;;;5075879;28;20207;-57
2022/03/11 07:16:21;;;;;;;15.00;12.43;;;3.40;50.60;;;;;;5075807;28;20283;-56
2022/03/11 07:18:48;;;;;;;15.18;11.23;;;3.50;50.60;;;;;;5075854;28;20743;-57
2022/03/11 07:21:18;;;;;;;20.27;13.25;;;3.60;50.00;;;;;;5075837;28;20232;-57
2022/03/11 07:23:46;;;;;;;13.48;12.18;;;3.60;50.10;;;;;;5074391;28;20232;-57
2022/03/11 07:26:13;;;;;;;13.43;11.05;;;3.70;50.00;;;;;;5075773;28;20259;-56
2022/03/11 07:28:40;;;;;;;17.30;14.38;;;3.60;50.30;;;;;;5075715;28;20296;-57
2022/03/11 07:31:07;;;;;;;17.15;13.45;;;3.70;50.50;;;;;;5075768;28;20235;-57
2022/03/11 07:33:35;;;;;;;14.10;12.70;;;3.70;49.90;;;;;;5075454;28;20295;-56
2022/03/11 07:36:02;;;;;;;14.55;13.13;;;3.80;50.20;;;;;;5075513;28;20236;-56
2022/03/11 07:38:30;;;;;;;14.25;12.75;;;3.70;49.80;;;;;;5074088;28;20225;-56
2022/03/11 07:40:58;;;;;;;14.48;12.38;;;3.60;50.60;;;;;;5075330;28;20201;-57
2022/03/11 07:43:25;;;;;;;15.25;12.63;;;3.50;50.90;;;;;;5075474;28;20251;-57
2022/03/11 07:45:53;;;;;;;15.60;13.93;;;3.50;50.30;;;;;;5075352;28;20208;-56
2022/03/11 07:48:20;;;;;;;14.65;10.88;;;3.50;50.60;;;;;;5075302;28;20205;-56
2022/03/11 07:50:48;;;;;;;16.42;13.43;;;3.60;50.70;;;;;;5075346;28;20204;-56
2022/03/11 07:53:15;;;;;;;15.90;14.25;;;3.80;50.70;;;;;;5073960;28;20292;-57
2022/03/11 07:55:42;;;;;;;13.70;12.30;;;3.90;50.20;;;;;;5075011;28;20673;-57
2022/03/11 07:58:09;;;;;;;16.95;13.70;;;4.00;49.80;;;;;;5074953;28;20237;-56
2022/03/11 08:00:37;;;;;;;15.30;13.73;;;4.00;49.60;;;;;;5075067;28;20283;-57
2022/03/11 08:03:04;;;;;;;15.63;14.05;;;4.10;49.80;;;;;;5075013;28;20291;-56
2022/03/11 08:05:31;;;;;;;15.70;14.05;;;4.20;49.10;;;;;;5075008;28;20232;-57
2022/03/11 08:08:00;;;;;;;17.15;15.30;;;4.00;49.70;;;;;;5073651;28;20734;-58
2022/03/11 08:10:29;;;;;;;15.27;13.77;;;3.80;50.10;;;;;;5074840;28;20201;-58
2022/03/11 08:12:56;;;;;;;18.17;15.02;;;3.70;50.80;;;;;;5074856;28;20232;-58
2022/03/11 08:15:23;;;;;;;16.38;14.25;;;3.70;50.70;;;;;;5074377;28;20263;-58
2022/03/11 08:17:51;;;;;;;15.60;14.00;;;3.80;50.40;;;;;;5075039;28;20231;-58
2022/03/11 08:20:18;;;;;;;15.68;13.48;;;3.80;50.20;;;;;;5074894;28;20201;-57
2022/03/11 08:22:45;;;;;;;14.45;12.93;;;3.90;50.50;;;;;;5073363;28;20325;-58
2022/03/11 08:25:14;;;;;;;14.32;13.02;;;3.90;50.60;;;;;;5074530;28;20205;-57
2022/03/11 08:27:42;;;;;;;15.45;13.90;;;4.00;50.50;;;;;;5074448;28;20314;-56
2022/03/11 08:30:11;;;;;;;16.75;14.32;;;4.10;50.70;;;;;;5074487;28;20244;-56
2022/03/11 08:32:38;;;;;;;15.95;13.40;;;4.00;50.80;;;;;;5074564;28;20227;-58
2022/03/11 08:35:06;;;;;;;17.52;14.43;;;4.00;50.70;;;;;;5074508;28;20304;-58
2022/03/11 08:37:33;;;;;;;17.30;14.18;;;3.90;51.30;;;;;;5073133;28;20228;-56
2022/03/11 08:40:01;;;;;;;14.80;11.20;;;4.10;51.70;;;;;;5074202;28;20204;-56
2022/03/11 08:42:29;;;;;;;17.83;14.50;;;4.20;51.20;;;;;;5074163;28;20301;-56
2022/03/11 08:44:56;;;;;;;16.30;14.25;;;4.30;50.80;;;;;;5074369;28;20626;-58
2022/03/11 08:47:23;;;;;;;16.00;14.30;;;4.40;50.50;;;;;;5074282;28;20307;-56
2022/03/11 08:49:49;;;;;;;15.00;12.18;;;4.50;50.90;;;;;;5074138;28;20240;-56
2022/03/11 08:52:16;;;;;;;18.27;13.65;;;4.60;50.40;;;;;;5072985;28;20201;-58
2022/03/11 08:54:43;;;;;;;16.08;14.32;;;4.60;50.10;;;;;;5073665;28;20239;-58
2022/03/11 08:57:10;;;;;;;18.42;14.77;;;4.70;50.20;;;;;;5073878;28;20232;-58
2022/03/11 08:59:38;;;;;;;19.08;15.15;;;4.60;50.00;;;;;;5073934;28;20560;-58
2022/03/11 09:02:07;;;;;;;15.32;13.73;;;4.70;50.10;;;;;;5073913;28;20208;-58
2022/03/11 09:04:34;;;;;;;21.00;16.38;;;4.80;50.70;;;;;;5073922;28;20720;-56
2022/03/11 09:07:01;;;;;;;17.55;14.38;;;5.00;50.80;;;;;;5072626;28;20223;-58
2022/03/11 09:09:27;;;;;;;18.13;14.40;;;5.20;50.30;;;;;;5073533;28;20212;-59
2022/03/11 09:11:54;;;;;;;17.80;15.82;;;5.30;49.00;;;;;;5073677;28;20201;-58
2022/03/11 09:14:21;;;;;;;15.35;13.63;;;5.40;49.60;;;;;;5073461;28;20260;-58
2022/03/11 09:16:49;;;;;;;18.48;15.60;;;5.60;49.90;;;;;;5073538;28;20201;-58
2022/03/11 09:19:16;;;;;;;17.38;15.35;;;5.70;48.60;;;;;;5073636;28;20209;-58
2022/03/11 09:21:43;;;;;;;19.42;15.75;;;5.80;49.20;;;;;;5072170;28;20347;-58
2022/03/11 09:24:10;;;;;;;17.45;14.93;;;5.90;48.60;;;;;;5073236;28;20209;-58
2022/03/11 09:26:37;;;;;;;18.52;15.82;;;5.90;48.50;;;;;;5072850;28;20200;-58
2022/03/11 09:29:04;;;;;;;15.82;12.45;;;6.10;48.40;;;;;;5073242;28;20258;-58
2022/03/11 09:31:31;;;;;;;18.25;16.52;;;6.20;47.40;;;;;;5073422;28;20546;-58
2022/03/11 09:33:59;;;;;;;15.80;14.20;;;6.30;47.60;;;;;;5073409;28;20201;-58
2022/03/11 09:36:26;;;;;;;16.23;14.50;;;6.50;48.30;;;;;;5072458;28;20232;-58
2022/03/11 09:38:53;;;;;;;17.60;15.90;;;6.80;48.10;;;;;;5072703;28;20231;-58
2022/03/11 09:41:21;;;;;;;16.50;14.80;;;6.90;47.30;;;;;;5073254;28;20235;-59
2022/03/11 09:43:48;;;;;;;17.13;15.40;;;7.10;47.20;;;;;;5073165;28;20270;-58
2022/03/11 09:46:15;;;;;;;18.83;15.52;;;7.20;46.50;;;;;;5073155;28;20200;-58
2022/03/11 09:48:43;;;;;;;16.83;15.23;;;7.20;45.40;;;;;;5073063;28;20208;-58
2022/03/11 09:51:12;;;;;;;16.05;14.45;;;7.30;46.40;;;;;;5073031;28;20204;-58
2022/03/11 09:53:40;;;;;;;16.83;15.02;;;7.40;46.50;;;;;;5071943;28;20223;-57
2022/03/11 09:56:07;;;;;;;17.55;14.77;;;7.50;46.40;;;;;;5072920;28;20224;-58
2022/03/11 09:58:34;;;;;;;17.33;15.25;;;7.60;46.90;;;;;;5072880;28;20229;-58
2022/03/11 10:01:01;;;;;;;18.50;13.50;;;7.70;46.30;;;;;;5072919;28;20291;-57
2022/03/11 10:03:29;;;;;;;17.10;15.30;;;7.90;46.10;;;;;;5072879;28;20295;-58
2022/03/11 10:05:56;;;;;;;17.55;15.70;;;8.00;45.30;;;;;;5072868;28;20229;-58
2022/03/11 10:08:32;;;;;;;16.30;14.80;;;8.20;45.40;;;;;;5071488;28;20201;-58
2022/03/11 10:11:18;;;;;;;18.23;16.52;;;8.30;44.50;;;;;;5072877;28;20208;-58
2022/03/11 10:13:46;;;;;;;15.00;13.40;;;8.40;44.00;;;;;;5072787;28;20291;-57
2022/03/11 10:16:20;;;;;;;18.10;16.10;;;8.60;44.60;;;;;;5072601;28;20540;-57
2022/03/11 10:18:54;;;;;;;17.67;15.88;;;8.70;44.30;;;;;;5072666;28;20235;-57
2022/03/11 10:21:24;;;;;;;17.50;14.52;;;8.80;43.60;;;;;;5072463;28;20281;-57
2022/03/11 10:23:52;;;;;;;17.65;14.30;;;8.90;43.40;;;;;;5072029;28;20283;-57
2022/03/11 10:26:35;;;;;;;17.45;15.60;;;8.90;42.60;;;;;;5072525;28;20207;-57
2022/03/11 10:29:04;;;;;;;16.33;14.73;;;9.10;43.80;;;;;;5070512;28;20576;-57
2022/03/11 10:31:32;;;;;;;16.90;15.20;;;9.30;43.80;;;;;;5072615;28;20208;-57
2022/03/11 10:34:22;;;;;;;17.33;15.73;;;9.40;42.40;;;;;;5072663;28;20570;-58
2022/03/11 10:36:51;;;;;;;16.67;15.05;;;9.50;41.50;;;;;;5071294;28;20678;-57
2022/03/11 10:39:21;;;;;;;16.23;14.55;;;9.60;42.40;;;;;;5074913;28;20852;-57
2022/03/11 10:41:50;;;;;;;17.15;15.55;;;9.60;42.20;;;;;;5076606;28;20567;-57
2022/03/11 10:44:19;;;;;;;16.85;15.25;;;9.70;41.90;;;;;;5076481;28;20200;-57
2022/03/11 10:46:46;;;;;;;16.05;14.50;;;9.80;42.40;;;;;;5076478;28;20207;-57
2022/03/11 10:49:23;;;;;;;18.42;15.40;;;9.90;41.40;;;;;;5076483;28;20215;-57
2022/03/11 10:51:52;;;;;;;16.90;15.27;;;10.10;41.60;;;;;;5074955;28;20662;-58
2022/03/11 10:54:24;;;;;;;20.13;15.45;;;10.30;41.30;;;;;;5076193;28;20265;-57
2022/03/11 10:56:51;;;;;;;17.77;15.98;;;10.40;41.40;;;;;;5076378;28;20213;-57
2022/03/11 10:59:25;;;;;;;17.13;15.52;;;10.40;40.60;;;;;;5076048;28;20307;-57
2022/03/11 11:01:53;;;;;;;17.63;15.77;;;10.50;41.40;;;;;;5076303;28;20774;-57
2022/03/11 11:04:20;;;;;;;19.65;16.90;;;10.70;41.30;;;;;;5076019;28;20209;-57
2022/03/11 11:06:48;;;;;;;16.75;15.15;;;11.00;40.90;;;;;;5074914;28;20204;-57
2022/03/11 11:09:17;;;;;;;17.60;15.93;;;11.20;40.10;;;;;;5075839;28;20678;-57
2022/03/11 11:11:46;;;;;;;18.33;16.65;;;11.30;39.60;;;;;;5076067;28;20562;-57
2022/03/11 11:14:14;;;;;;;17.63;16.00;;;11.40;38.60;;;;;;5075886;28;20220;-57
2022/03/11 11:16:41;;;;;;;19.05;17.10;;;11.60;40.00;;;;;;5075819;28;20200;-58
2022/03/11 11:19:09;;;;;;;17.80;16.08;;;11.80;39.30;;;;;;5075855;28;20327;-57
2022/03/11 11:21:39;;;;;;;18.52;16.73;;;12.10;39.70;;;;;;5074383;28;20237;-59
2022/03/11 11:24:11;;;;;;;17.83;16.10;;;12.50;39.80;;;;;;5075844;28;20204;-59
2022/03/11 11:26:40;;;;;;;17.60;16.00;;;13.50;38.40;;;;;;5075949;28;20215;-59
2022/03/11 11:29:09;;;;;;;16.92;15.40;;;15.50;36.10;;;;;;5075698;28;20287;-59
2022/03/11 11:31:37;;;;;;;18.63;16.93;;;17.80;33.60;;;;;;5075593;28;20280;-58
2022/03/11 11:34:04;;;;;;;19.90;18.10;;;20.10;30.10;;;;;;5075715;28;20494;-58
2022/03/11 11:36:35;;;;;;;19.40;17.40;;;22.00;28.10;;;;;;5074845;28;20538;-58
2022/03/11 11:39:03;;;;;;;18.03;16.33;;;22.80;22.50;;;;;;5075512;28;20500;-58
2022/03/11 11:41:31;;;;;;;18.80;17.13;;;22.50;26.00;;;;;;5075352;28;20541;-58
2022/03/11 11:44:00;;;;;;;18.97;17.23;;;23.80;25.70;;;;;;5075391;28;20497;-58
2022/03/11 11:46:29;;;;;;;19.23;17.53;;;24.50;24.00;;;;;;5075468;28;20479;-58
2022/03/11 11:49:13;;;;;;;18.30;16.50;;;25.10;20.80;;;;;;5075285;28;20533;-58
2022/03/11 11:52:04;;;;;;;16.63;15.13;;;24.40;19.60;;;;;;5073427;28;20864;-58
2022/03/11 11:54:38;;;;;;;19.10;17.40;;;24.40;21.70;;;;;;5075197;28;20450;-58
2022/03/11 11:57:07;;;;;;;15.83;14.43;;;24.40;21.20;;;;;;5075182;28;20450;-58
2022/03/11 11:59:37;;;;;;;16.40;14.83;;;24.70;23.00;;;;;;5075034;28;20498;-58
2022/03/11 12:02:25;;;;;;;17.80;16.20;;;25.50;21.70;;;;;;5075145;28;20533;-58
2022/03/11 12:04:52;;;;;;;20.73;18.57;;;26.20;20.90;;;;;;5074916;28;20458;-58
2022/03/11 12:07:21;;;;;;;18.17;16.47;;;25.70;20.10;;;;;;5073873;28;20541;-57
2022/03/11 12:09:51;;;;;;;18.73;16.93;;;25.20;22.10;;;;;;5074943;28;20455;-59
2022/03/11 12:13:06;;;;;;;15.83;14.33;;;25.20;21.80;;;;;;5074863;28;20457;-57
2022/03/11 12:15:43;;;;;;;19.10;17.43;;;24.80;20.60;;;;;;5047934;28;20538;-59
2022/03/11 12:18:45;;;;;;;17.97;16.10;;;24.20;20.30;;;;;;5074786;28;21068;-59
2022/03/11 12:21:27;;;;;;;18.47;16.73;;;23.40;22.30;;;;;;5074647;28;21008;-59
2022/03/11 12:23:54;;;;;;;19.03;17.33;;;22.60;22.10;;;;;;5074245;28;20447;-59
2022/03/11 12:26:36;;;;;;;19.77;18.07;;;21.80;23.20;;;;;;5074551;28;20447;-60
2022/03/11 12:29:03;;;;;;;16.77;15.07;;;21.30;24.20;;;;;;5074733;28;20454;-59
2022/03/11 12:31:30;;;;;;;18.43;16.60;;;21.00;24.00;;;;;;5074593;28;20492;-59
2022/03/11 12:34:00;;;;;;;17.80;16.20;;;20.60;24.60;;;;;;5074652;28;20471;-59
2022/03/11 12:36:28;;;;;;;19.30;17.47;;;20.40;24.60;;;;;;5074316;28;20805;-59
2022/03/11 12:38:55;;;;;;;18.23;16.63;;;19.80;25.30;;;;;;5073827;28;21011;-59
2022/03/11 12:41:24;;;;;;;18.80;17.00;;;19.20;25.90;;;;;;5074327;28;20545;-59